sensor_id;sensor_type;location;lat;lon;timestamp;pressure;altitude;pressure_sealevel;temperature;humidity
62942;BME280;49042;47.318;19.874;2022-07-03T00:00:16;100783.38;;;21.47;63.50
62942;BME280;49042;47.318;19.874;2022-07-03T00:03:18;100780.91;;;21.26;64.76
62942;BME280;49042;47.318;19.874;2022-07-03T00:06:20;100782.09;;;20.78;66.86
62942;BME280;49042;47.318;19.874;2022-07-03T00:09:22;100782.28;;;20.48;68.50
62942;BME280;49042;47.318;19.874;2022-07-03T00:12:24;100776.09;;;20.49;68.86
62942;BME280;49042;47.318;19.874;2022-07-03T00:15:25;100783.25;;;20.25;70.01
62942;BME280;49042;47.318;19.874;2022-07-03T00:18:27;100788.56;;;20.19;70.49
62942;BME280;49042;47.318;19.874;2022-07-03T00:21:33;100780.41;;;20.66;68.53
62942;BME280;49042;47.318;19.874;2022-07-03T00:24:42;100787.66;;;20.26;70.17
62942;BME280;49042;47.318;19.874;2022-07-03T00:27:48;100791.75;;;20.85;67.74
62942;BME280;49042;47.318;19.874;2022-07-03T00:30:52;100789.87;;;21.03;66.50
62942;BME280;49042;47.318;19.874;2022-07-03T00:33:58;100795.12;;;21.14;65.85
62942;BME280;49042;47.318;19.874;2022-07-03T00:37:00;100792.59;;;20.97;66.09
62942;BME280;49042;47.318;19.874;2022-07-03T00:40:10;100804.41;;;20.33;70.13
62942;BME280;49042;47.318;19.874;2022-07-03T00:43:13;100799.00;;;20.55;69.40
62942;BME280;49042;47.318;19.874;2022-07-03T00:46:17;100798.81;;;20.90;67.61
62942;BME280;49042;47.318;19.874;2022-07-03T00:49:24;100802.25;;;21.11;66.68
62942;BME280;49042;47.318;19.874;2022-07-03T00:52:28;100793.44;;;21.01;66.83
62942;BME280;49042;47.318;19.874;2022-07-03T00:55:34;100809.31;;;21.04;66.87
62942;BME280;49042;47.318;19.874;2022-07-03T00:58:38;100802.66;;;20.27;70.14
62942;BME280;49042;47.318;19.874;2022-07-03T01:01:40;100797.41;;;20.05;71.85
62942;BME280;49042;47.318;19.874;2022-07-03T01:08:51;100791.31;;;19.40;74.98
62942;BME280;49042;47.318;19.874;2022-07-03T01:12:02;100787.81;;;19.41;75.10
62942;BME280;49042;47.318;19.874;2022-07-03T01:15:10;100790.44;;;19.47;75.14
62942;BME280;49042;47.318;19.874;2022-07-03T01:18:26;100784.28;;;19.37;75.31
62942;BME280;49042;47.318;19.874;2022-07-03T01:21:43;100783.38;;;19.54;74.37
62942;BME280;49042;47.318;19.874;2022-07-03T01:25:14;100777.19;;;19.11;76.83
62942;BME280;49042;47.318;19.874;2022-07-03T01:28:20;100759.56;;;19.70;74.32
62942;BME280;49042;47.318;19.874;2022-07-03T01:31:22;100766.56;;;19.87;73.44
62942;BME280;49042;47.318;19.874;2022-07-03T01:34:25;100764.72;;;20.27;70.57
62942;BME280;49042;47.318;19.874;2022-07-03T01:37:34;100761.22;;;20.20;70.67
62942;BME280;49042;47.318;19.874;2022-07-03T01:40:38;100752.31;;;20.35;69.70
62942;BME280;49042;47.318;19.874;2022-07-03T01:43:48;100758.47;;;20.36;69.73
62942;BME280;49042;47.318;19.874;2022-07-03T01:46:52;100761.16;;;20.29;70.06
62942;BME280;49042;47.318;19.874;2022-07-03T01:49:56;100770.03;;;20.14;70.64
62942;BME280;49042;47.318;19.874;2022-07-03T01:53:01;100763.88;;;20.17;70.54
62942;BME280;49042;47.318;19.874;2022-07-03T01:56:03;100753.22;;;20.29;69.70
62942;BME280;49042;47.318;19.874;2022-07-03T01:59:07;100749.66;;;20.33;69.65
62942;BME280;49042;47.318;19.874;2022-07-03T02:02:14;100756.75;;;20.31;69.48
62942;BME280;49042;47.318;19.874;2022-07-03T02:05:29;100756.66;;;20.49;68.72
62942;BME280;49042;47.318;19.874;2022-07-03T02:12:11;100753.94;;;20.58;68.00
62942;BME280;49042;47.318;19.874;2022-07-03T02:15:17;100742.56;;;20.45;68.04
62942;BME280;49042;47.318;19.874;2022-07-03T02:21:28;100743.53;;;20.22;69.26
62942;BME280;49042;47.318;19.874;2022-07-03T02:24:38;100744.47;;;20.02;70.04
62942;BME280;49042;47.318;19.874;2022-07-03T02:27:47;100751.50;;;20.14;69.75
62942;BME280;49042;47.318;19.874;2022-07-03T02:30:55;100750.53;;;20.32;68.75
62942;BME280;49042;47.318;19.874;2022-07-03T02:33:58;100744.28;;;20.48;68.17
62942;BME280;49042;47.318;19.874;2022-07-03T02:37:09;100751.44;;;20.35;68.67
62942;BME280;49042;47.318;19.874;2022-07-03T02:43:58;100744.50;;;19.99;70.21
62942;BME280;49042;47.318;19.874;2022-07-03T02:47:06;100737.31;;;20.29;69.01
62942;BME280;49042;47.318;19.874;2022-07-03T02:50:18;100733.69;;;20.48;67.94
62942;BME280;49042;47.318;19.874;2022-07-03T02:53:26;100732.00;;;20.37;68.10
62942;BME280;49042;47.318;19.874;2022-07-03T02:56:53;100727.69;;;20.01;70.00
62942;BME280;49042;47.318;19.874;2022-07-03T03:03:02;100738.34;;;19.87;70.61
62942;BME280;49042;47.318;19.874;2022-07-03T03:06:12;100741.84;;;19.97;70.20
62942;BME280;49042;47.318;19.874;2022-07-03T03:09:24;100736.56;;;19.94;70.47
62942;BME280;49042;47.318;19.874;2022-07-03T03:12:31;100736.62;;;19.63;72.43
62942;BME280;49042;47.318;19.874;2022-07-03T03:15:34;100739.31;;;19.53;72.72
62942;BME280;49042;47.318;19.874;2022-07-03T03:18:38;100742.81;;;19.68;71.90
62942;BME280;49042;47.318;19.874;2022-07-03T03:25:16;100744.50;;;19.88;71.31
62942;BME280;49042;47.318;19.874;2022-07-03T03:28:18;100754.22;;;19.92;71.22
62942;BME280;49042;47.318;19.874;2022-07-03T03:31:21;100753.41;;;19.68;72.65
62942;BME280;49042;47.318;19.874;2022-07-03T03:34:24;100750.72;;;19.82;72.20
62942;BME280;49042;47.318;19.874;2022-07-03T03:37:26;100750.75;;;19.51;73.40
62942;BME280;49042;47.318;19.874;2022-07-03T03:40:28;100747.22;;;19.67;73.14
62942;BME280;49042;47.318;19.874;2022-07-03T03:43:30;100742.78;;;19.65;73.43
62942;BME280;49042;47.318;19.874;2022-07-03T03:46:32;100740.22;;;19.40;74.81
62942;BME280;49042;47.318;19.874;2022-07-03T03:49:34;100737.56;;;19.46;74.21
62942;BME280;49042;47.318;19.874;2022-07-03T03:52:36;100731.34;;;19.55;75.04
62942;BME280;49042;47.318;19.874;2022-07-03T03:58:59;100738.41;;;19.67;74.03
62942;BME280;49042;47.318;19.874;2022-07-03T04:02:01;100744.63;;;19.28;75.90
62942;BME280;49042;47.318;19.874;2022-07-03T04:05:03;100742.84;;;19.33;75.20
62942;BME280;49042;47.318;19.874;2022-07-03T04:08:05;100737.53;;;19.68;74.15
62942;BME280;49042;47.318;19.874;2022-07-03T04:11:07;100753.41;;;19.63;74.64
62942;BME280;49042;47.318;19.874;2022-07-03T04:14:08;100748.09;;;19.51;77.76
62942;BME280;49042;47.318;19.874;2022-07-03T04:17:10;100755.19;;;19.19;80.08
62942;BME280;49042;47.318;19.874;2022-07-03T04:20:12;100754.28;;;19.02;81.26
62942;BME280;49042;47.318;19.874;2022-07-03T04:23:14;100759.53;;;18.76;83.27
62942;BME280;49042;47.318;19.874;2022-07-03T04:26:16;100761.28;;;18.88;83.26
62942;BME280;49042;47.318;19.874;2022-07-03T04:29:17;100762.19;;;18.94;83.09
62942;BME280;49042;47.318;19.874;2022-07-03T04:32:19;100770.16;;;19.18;81.82
62942;BME280;49042;47.318;19.874;2022-07-03T04:35:21;100764.00;;;19.27;81.31
62942;BME280;49042;47.318;19.874;2022-07-03T04:38:22;100749.00;;;19.42;79.50
62942;BME280;49042;47.318;19.874;2022-07-03T04:41:24;100748.94;;;19.83;78.20
62942;BME280;49042;47.318;19.874;2022-07-03T04:44:26;100745.41;;;19.85;77.89
62942;BME280;49042;47.318;19.874;2022-07-03T04:47:29;100744.47;;;20.00;75.49
62942;BME280;49042;47.318;19.874;2022-07-03T04:50:31;100737.34;;;20.26;71.68
62942;BME280;49042;47.318;19.874;2022-07-03T04:53:33;100748.59;;;20.64;69.98
62942;BME280;49042;47.318;19.874;2022-07-03T04:56:34;100759.28;;;20.53;70.84
62942;BME280;49042;47.318;19.874;2022-07-03T04:59:36;100761.72;;;20.85;69.74
62942;BME280;49042;47.318;19.874;2022-07-03T05:02:38;100756.31;;;21.01;69.57
62942;BME280;49042;47.318;19.874;2022-07-03T05:05:40;100744.91;;;20.89;68.94
62942;BME280;49042;47.318;19.874;2022-07-03T05:08:42;100746.41;;;21.28;67.62
62942;BME280;49042;47.318;19.874;2022-07-03T05:11:44;100734.69;;;21.54;66.61
62942;BME280;49042;47.318;19.874;2022-07-03T05:14:46;100736.56;;;21.39;67.78
62942;BME280;49042;47.318;19.874;2022-07-03T05:17:48;100738.00;;;21.75;66.31
62942;BME280;49042;47.318;19.874;2022-07-03T05:20:50;100734.41;;;21.79;65.08
62942;BME280;49042;47.318;19.874;2022-07-03T05:23:52;100730.09;;;21.67;65.60
62942;BME280;49042;47.318;19.874;2022-07-03T05:26:53;100732.66;;;21.78;65.82
62942;BME280;49042;47.318;19.874;2022-07-03T05:29:55;100736.81;;;22.04;65.37
62942;BME280;49042;47.318;19.874;2022-07-03T05:32:57;100730.41;;;22.21;64.80
62942;BME280;49042;47.318;19.874;2022-07-03T05:35:59;100737.25;;;22.40;63.92
62942;BME280;49042;47.318;19.874;2022-07-03T05:39:01;100738.53;;;22.06;63.86
62942;BME280;49042;47.318;19.874;2022-07-03T05:42:22;100761.06;;;22.46;63.84
62942;BME280;49042;47.318;19.874;2022-07-03T05:45:24;100764.44;;;22.59;62.89
62942;BME280;49042;47.318;19.874;2022-07-03T05:48:26;100766.63;;;22.27;63.44
62942;BME280;49042;47.318;19.874;2022-07-03T05:51:28;100760.78;;;22.66;63.65
62942;BME280;49042;47.318;19.874;2022-07-03T05:54:30;100761.63;;;22.70;61.76
62942;BME280;49042;47.318;19.874;2022-07-03T05:57:32;100767.03;;;23.23;61.28
62942;BME280;49042;47.318;19.874;2022-07-03T06:00:35;100761.22;;;23.52;59.24
62942;BME280;49042;47.318;19.874;2022-07-03T06:03:36;100761.41;;;23.41;58.79
62942;BME280;49042;47.318;19.874;2022-07-03T06:06:38;100758.19;;;23.74;58.81
62942;BME280;49042;47.318;19.874;2022-07-03T06:09:40;100766.44;;;23.59;58.52
62942;BME280;49042;47.318;19.874;2022-07-03T06:12:42;100763.84;;;23.56;59.28
62942;BME280;49042;47.318;19.874;2022-07-03T06:15:44;100756.53;;;23.67;59.28
62942;BME280;49042;47.318;19.874;2022-07-03T06:18:46;100753.28;;;23.97;58.39
62942;BME280;49042;47.318;19.874;2022-07-03T06:21:48;100757.22;;;24.23;56.23
62942;BME280;49042;47.318;19.874;2022-07-03T06:24:49;100757.22;;;24.22;56.37
62942;BME280;49042;47.318;19.874;2022-07-03T06:27:51;100762.41;;;24.30;56.81
62942;BME280;49042;47.318;19.874;2022-07-03T06:30:53;100757.88;;;24.75;55.31
62942;BME280;49042;47.318;19.874;2022-07-03T06:33:55;100750.44;;;24.49;56.35
62942;BME280;49042;47.318;19.874;2022-07-03T06:36:56;100748.38;;;24.63;56.31
62942;BME280;49042;47.318;19.874;2022-07-03T06:39:58;100752.94;;;24.96;55.44
62942;BME280;49042;47.318;19.874;2022-07-03T06:43:00;100737.72;;;24.99;54.36
62942;BME280;49042;47.318;19.874;2022-07-03T06:46:02;100732.63;;;24.90;55.42
62942;BME280;49042;47.318;19.874;2022-07-03T06:49:04;100736.66;;;25.08;55.46
62942;BME280;49042;47.318;19.874;2022-07-03T06:52:05;100725.78;;;25.16;53.99
62942;BME280;49042;47.318;19.874;2022-07-03T06:55:08;100728.00;;;24.97;54.51
62942;BME280;49042;47.318;19.874;2022-07-03T06:58:09;100723.09;;;25.16;54.11
62942;BME280;49042;47.318;19.874;2022-07-03T07:01:11;100718.94;;;25.04;54.43
62942;BME280;49042;47.318;19.874;2022-07-03T07:04:13;100707.59;;;25.31;53.70
62942;BME280;49042;47.318;19.874;2022-07-03T07:07:15;100711.37;;;25.57;54.08
62942;BME280;49042;47.318;19.874;2022-07-03T07:10:17;100708.19;;;25.76;53.36
62942;BME280;49042;47.318;19.874;2022-07-03T07:13:18;100706.75;;;25.96;50.92
62942;BME280;49042;47.318;19.874;2022-07-03T07:16:20;100708.63;;;25.59;51.76
62942;BME280;49042;47.318;19.874;2022-07-03T07:19:22;100704.38;;;26.15;51.15
62942;BME280;49042;47.318;19.874;2022-07-03T07:22:24;100702.47;;;26.19;50.17
62942;BME280;49042;47.318;19.874;2022-07-03T07:25:27;100702.34;;;26.24;50.02
62942;BME280;49042;47.318;19.874;2022-07-03T07:28:28;100703.38;;;26.19;49.76
62942;BME280;49042;47.318;19.874;2022-07-03T07:31:30;100701.53;;;26.22;49.70
62942;BME280;49042;47.318;19.874;2022-07-03T07:34:32;100700.31;;;26.32;50.78
62942;BME280;49042;47.318;19.874;2022-07-03T07:37:34;100698.88;;;26.22;50.54
62942;BME280;49042;47.318;19.874;2022-07-03T07:40:36;100696.91;;;26.27;50.40
62942;BME280;49042;47.318;19.874;2022-07-03T07:43:38;100696.38;;;26.73;49.91
62942;BME280;49042;47.318;19.874;2022-07-03T07:46:40;100695.22;;;26.82;49.25
62942;BME280;49042;47.318;19.874;2022-07-03T07:49:41;100696.06;;;26.82;49.20
62942;BME280;49042;47.318;19.874;2022-07-03T07:52:43;100688.41;;;26.99;48.26
62942;BME280;49042;47.318;19.874;2022-07-03T07:55:45;100695.47;;;27.00;48.59
62942;BME280;49042;47.318;19.874;2022-07-03T07:58:47;100698.78;;;27.08;48.77
62942;BME280;49042;47.318;19.874;2022-07-03T08:01:49;100707.91;;;27.02;48.71
62942;BME280;49042;47.318;19.874;2022-07-03T08:05:09;100704.97;;;26.83;48.13
62942;BME280;49042;47.318;19.874;2022-07-03T08:08:30;100702.16;;;27.41;48.00
62942;BME280;49042;47.318;19.874;2022-07-03T08:11:31;100702.78;;;26.96;49.47
62942;BME280;49042;47.318;19.874;2022-07-03T08:14:33;100705.00;;;27.36;48.11
62942;BME280;49042;47.318;19.874;2022-07-03T08:17:35;100698.97;;;27.55;47.34
62942;BME280;49042;47.318;19.874;2022-07-03T08:20:37;100700.75;;;28.04;47.34
62942;BME280;49042;47.318;19.874;2022-07-03T08:23:39;100701.00;;;28.44;46.54
62942;BME280;49042;47.318;19.874;2022-07-03T08:26:41;100708.66;;;28.76;44.96
62942;BME280;49042;47.318;19.874;2022-07-03T08:29:42;100703.28;;;29.41;41.82
62942;BME280;49042;47.318;19.874;2022-07-03T08:32:50;100700.78;;;29.98;41.71
62942;BME280;49042;47.318;19.874;2022-07-03T08:35:52;100695.81;;;30.27;40.41
62942;BME280;49042;47.318;19.874;2022-07-03T08:38:54;100696.16;;;31.47;36.95
62942;BME280;49042;47.318;19.874;2022-07-03T08:41:56;100696.50;;;31.91;36.23
62942;BME280;49042;47.318;19.874;2022-07-03T08:45:01;100700.84;;;31.43;37.10
62942;BME280;49042;47.318;19.874;2022-07-03T08:48:04;100701.00;;;32.72;38.32
62942;BME280;49042;47.318;19.874;2022-07-03T08:51:08;100692.62;;;31.97;35.91
62942;BME280;49042;47.318;19.874;2022-07-03T08:54:09;100701.25;;;32.84;34.57
62942;BME280;49042;47.318;19.874;2022-07-03T08:57:12;100693.00;;;34.19;32.73
62942;BME280;49042;47.318;19.874;2022-07-03T09:00:15;100698.19;;;35.19;31.27
62942;BME280;49042;47.318;19.874;2022-07-03T09:03:19;100694.53;;;35.84;30.18
62942;BME280;49042;47.318;19.874;2022-07-03T09:06:22;100697.97;;;36.12;28.98
62942;BME280;49042;47.318;19.874;2022-07-03T09:09:24;100695.72;;;36.06;29.05
62942;BME280;49042;47.318;19.874;2022-07-03T09:12:26;100690.03;;;37.77;26.16
62942;BME280;49042;47.318;19.874;2022-07-03T09:15:28;100694.78;;;39.07;25.47
62942;BME280;49042;47.318;19.874;2022-07-03T09:18:40;100691.59;;;38.47;24.97
62942;BME280;49042;47.318;19.874;2022-07-03T09:21:42;100688.84;;;39.96;23.80
62942;BME280;49042;47.318;19.874;2022-07-03T09:24:44;100688.50;;;37.96;25.91
62942;BME280;49042;47.318;19.874;2022-07-03T09:27:51;100686.03;;;39.76;24.94
62942;BME280;49042;47.318;19.874;2022-07-03T09:30:57;100682.72;;;42.62;19.96
62942;BME280;49042;47.318;19.874;2022-07-03T09:34:02;100686.59;;;39.07;23.53
62942;BME280;49042;47.318;19.874;2022-07-03T09:37:03;100687.16;;;42.81;20.47
62942;BME280;49042;47.318;19.874;2022-07-03T09:40:06;100685.66;;;42.24;20.22
62942;BME280;49042;47.318;19.874;2022-07-03T09:43:08;100682.78;;;42.52;20.52
62942;BME280;49042;47.318;19.874;2022-07-03T09:46:10;100685.94;;;39.46;23.39
62942;BME280;49042;47.318;19.874;2022-07-03T09:49:12;100681.25;;;40.69;22.49
62942;BME280;49042;47.318;19.874;2022-07-03T09:52:38;100681.37;;;41.64;21.21
62942;BME280;49042;47.318;19.874;2022-07-03T09:55:41;100682.62;;;39.43;24.06
62942;BME280;49042;47.318;19.874;2022-07-03T10:02:08;100682.44;;;41.15;22.26
62942;BME280;49042;47.318;19.874;2022-07-03T10:05:11;100675.66;;;40.81;22.07
62942;BME280;49042;47.318;19.874;2022-07-03T10:08:15;100672.69;;;38.88;24.75
62942;BME280;49042;47.318;19.874;2022-07-03T10:11:20;100679.50;;;40.98;21.72
62942;BME280;49042;47.318;19.874;2022-07-03T10:14:25;100675.03;;;39.88;22.05
62942;BME280;49042;47.318;19.874;2022-07-03T10:17:27;100669.72;;;40.86;21.61
62942;BME280;49042;47.318;19.874;2022-07-03T10:20:30;100663.19;;;42.20;19.08
62942;BME280;49042;47.318;19.874;2022-07-03T10:23:34;100666.38;;;41.02;20.70
62942;BME280;49042;47.318;19.874;2022-07-03T10:26:37;100663.25;;;41.35;20.33
62942;BME280;49042;47.318;19.874;2022-07-03T10:29:40;100653.91;;;40.30;20.33
62942;BME280;49042;47.318;19.874;2022-07-03T10:32:45;100647.94;;;44.70;15.90
62942;BME280;49042;47.318;19.874;2022-07-03T10:35:53;100647.50;;;41.75;19.06
62942;BME280;49042;47.318;19.874;2022-07-03T10:38:57;100645.03;;;40.18;21.10
62942;BME280;49042;47.318;19.874;2022-07-03T10:42:04;100643.00;;;39.17;22.37
62942;BME280;49042;47.318;19.874;2022-07-03T10:45:25;100638.34;;;38.43;24.69
62942;BME280;49042;47.318;19.874;2022-07-03T10:52:16;100624.16;;;40.26;21.91
62942;BME280;49042;47.318;19.874;2022-07-03T10:55:18;100621.78;;;39.62;22.47
62942;BME280;49042;47.318;19.874;2022-07-03T10:58:20;100616.94;;;38.93;23.90
62942;BME280;49042;47.318;19.874;2022-07-03T11:01:31;100619.31;;;36.48;26.96
62942;BME280;49042;47.318;19.874;2022-07-03T11:08:03;100614.84;;;36.22;27.87
62942;BME280;49042;47.318;19.874;2022-07-03T11:11:42;100609.50;;;36.09;28.76
62942;BME280;49042;47.318;19.874;2022-07-03T11:18:31;100600.81;;;34.63;29.65
62942;BME280;49042;47.318;19.874;2022-07-03T11:21:36;100601.09;;;33.90;30.25
62942;BME280;49042;47.318;19.874;2022-07-03T11:24:44;100592.97;;;33.18;29.65
62942;BME280;49042;47.318;19.874;2022-07-03T11:27:47;100597.75;;;32.83;31.26
62942;BME280;49042;47.318;19.874;2022-07-03T11:34:19;100583.78;;;32.91;29.21
62942;BME280;49042;47.318;19.874;2022-07-03T11:37:22;100581.56;;;33.57;26.02
62942;BME280;49042;47.318;19.874;2022-07-03T11:40:27;100575.84;;;33.61;25.31
62942;BME280;49042;47.318;19.874;2022-07-03T11:43:31;100574.12;;;33.60;25.62
62942;BME280;49042;47.318;19.874;2022-07-03T11:46:34;100564.56;;;33.54;25.44
62942;BME280;49042;47.318;19.874;2022-07-03T11:49:47;100563.13;;;33.63;25.31
62942;BME280;49042;47.318;19.874;2022-07-03T11:52:49;100559.34;;;33.66;26.91
62942;BME280;49042;47.318;19.874;2022-07-03T11:55:52;100560.53;;;33.47;28.70
62942;BME280;49042;47.318;19.874;2022-07-03T11:58:56;100557.06;;;33.87;27.55
62942;BME280;49042;47.318;19.874;2022-07-03T12:02:02;100542.97;;;34.10;28.92
62942;BME280;49042;47.318;19.874;2022-07-03T12:05:14;100540.59;;;34.18;28.59
62942;BME280;49042;47.318;19.874;2022-07-03T12:08:24;100543.41;;;34.58;25.64
62942;BME280;49042;47.318;19.874;2022-07-03T12:11:26;100533.44;;;34.45;26.41
62942;BME280;49042;47.318;19.874;2022-07-03T12:17:36;100527.31;;;35.20;25.28
62942;BME280;49042;47.318;19.874;2022-07-03T12:20:38;100526.19;;;35.49;25.77
62942;BME280;49042;47.318;19.874;2022-07-03T12:23:55;100519.03;;;35.35;25.66
62942;BME280;49042;47.318;19.874;2022-07-03T12:27:01;100516.06;;;36.25;24.37
62942;BME280;49042;47.318;19.874;2022-07-03T12:30:05;100507.63;;;36.88;23.84
62942;BME280;49042;47.318;19.874;2022-07-03T12:33:07;100510.72;;;37.74;23.13
62942;BME280;49042;47.318;19.874;2022-07-03T12:36:09;100515.66;;;37.12;22.92
62942;BME280;49042;47.318;19.874;2022-07-03T12:39:11;100505.78;;;37.00;25.25
62942;BME280;49042;47.318;19.874;2022-07-03T12:42:17;100510.50;;;38.20;22.98
62942;BME280;49042;47.318;19.874;2022-07-03T12:45:27;100507.69;;;40.94;19.90
62942;BME280;49042;47.318;19.874;2022-07-03T12:48:29;100507.09;;;43.42;17.34
62942;BME280;49042;47.318;19.874;2022-07-03T12:51:48;100499.22;;;43.73;17.42
62942;BME280;49042;47.318;19.874;2022-07-03T12:54:50;100505.84;;;44.46;17.00
62942;BME280;49042;47.318;19.874;2022-07-03T12:58:11;100509.38;;;47.35;13.71
62942;BME280;49042;47.318;19.874;2022-07-03T13:01:33;100509.94;;;47.08;14.58
62942;BME280;49042;47.318;19.874;2022-07-03T13:04:37;100499.13;;;49.70;12.55
62942;BME280;49042;47.318;19.874;2022-07-03T13:07:40;100493.09;;;49.05;12.66
62942;BME280;49042;47.318;19.874;2022-07-03T13:10:42;100493.81;;;44.47;16.85
62942;BME280;49042;47.318;19.874;2022-07-03T13:13:47;100492.72;;;43.57;17.82
62942;BME280;49042;47.318;19.874;2022-07-03T13:16:54;100490.09;;;44.23;16.86
62942;BME280;49042;47.318;19.874;2022-07-03T13:19:56;100485.03;;;45.24;15.66
62942;BME280;49042;47.318;19.874;2022-07-03T13:23:03;100487.06;;;46.01;15.32
62942;BME280;49042;47.318;19.874;2022-07-03T13:26:05;100487.97;;;42.64;17.77
62942;BME280;49042;47.318;19.874;2022-07-03T13:29:07;100478.16;;;40.01;20.80
62942;BME280;49042;47.318;19.874;2022-07-03T13:32:09;100483.78;;;39.49;21.33
62942;BME280;49042;47.318;19.874;2022-07-03T13:35:11;100474.63;;;43.38;16.57
62942;BME280;49042;47.318;19.874;2022-07-03T13:38:13;100479.34;;;44.53;15.14
62942;BME280;49042;47.318;19.874;2022-07-03T13:41:15;100470.72;;;46.45;14.07
62942;BME280;49042;47.318;19.874;2022-07-03T13:44:18;100465.66;;;48.61;12.54
62942;BME280;49042;47.318;19.874;2022-07-03T13:47:20;100460.56;;;47.86;13.25
62942;BME280;49042;47.318;19.874;2022-07-03T13:50:21;100462.78;;;47.47;13.84
62942;BME280;49042;47.318;19.874;2022-07-03T13:53:23;100461.44;;;50.56;11.65
62942;BME280;49042;47.318;19.874;2022-07-03T13:56:25;100463.81;;;52.39;9.74
62942;BME280;49042;47.318;19.874;2022-07-03T13:59:27;100456.31;;;50.60;10.75
62942;BME280;49042;47.318;19.874;2022-07-03T14:02:31;100458.09;;;51.19;10.59
62942;BME280;49042;47.318;19.874;2022-07-03T14:05:33;100452.66;;;49.24;12.25
62942;BME280;49042;47.318;19.874;2022-07-03T14:08:36;100452.66;;;49.99;11.25
62942;BME280;49042;47.318;19.874;2022-07-03T14:11:38;100461.09;;;48.95;11.16
62942;BME280;49042;47.318;19.874;2022-07-03T14:14:40;100449.38;;;50.76;10.13
62942;BME280;49042;47.318;19.874;2022-07-03T14:17:42;100444.91;;;48.00;12.38
62942;BME280;49042;47.318;19.874;2022-07-03T14:20:44;100444.78;;;49.14;11.16
62942;BME280;49042;47.318;19.874;2022-07-03T14:23:46;100450.97;;;45.87;13.68
62942;BME280;49042;47.318;19.874;2022-07-03T14:26:48;100448.56;;;47.79;12.11
62942;BME280;49042;47.318;19.874;2022-07-03T14:30:09;100443.00;;;48.01;12.37
62942;BME280;49042;47.318;19.874;2022-07-03T14:33:30;100444.03;;;46.83;13.11
62942;BME280;49042;47.318;19.874;2022-07-03T14:36:32;100437.47;;;47.72;11.99
62942;BME280;49042;47.318;19.874;2022-07-03T14:39:45;100426.97;;;46.94;12.91
62942;BME280;49042;47.318;19.874;2022-07-03T14:42:47;100432.16;;;47.04;12.63
62942;BME280;49042;47.318;19.874;2022-07-03T14:45:49;100428.28;;;45.85;13.95
62942;BME280;49042;47.318;19.874;2022-07-03T14:48:51;100434.00;;;42.73;16.71
62942;BME280;49042;47.318;19.874;2022-07-03T14:51:52;100424.44;;;39.81;18.56
62942;BME280;49042;47.318;19.874;2022-07-03T14:54:55;100416.47;;;38.79;20.93
62942;BME280;49042;47.318;19.874;2022-07-03T14:58:31;100414.13;;;37.68;20.67
62942;BME280;49042;47.318;19.874;2022-07-03T15:01:26;100414.72;;;37.71;21.08
62942;BME280;49042;47.318;19.874;2022-07-03T15:08:05;100409.94;;;36.74;22.17
62942;BME280;49042;47.318;19.874;2022-07-03T15:11:14;100398.44;;;36.13;22.70
62942;BME280;49042;47.318;19.874;2022-07-03T15:14:43;100387.22;;;36.18;22.77
62942;BME280;49042;47.318;19.874;2022-07-03T15:17:47;100394.53;;;35.81;23.01
62942;BME280;49042;47.318;19.874;2022-07-03T15:20:51;100391.38;;;35.51;23.19
62942;BME280;49042;47.318;19.874;2022-07-03T15:23:53;100391.12;;;35.30;23.38
62942;BME280;49042;47.318;19.874;2022-07-03T15:26:57;100387.03;;;35.24;23.56
62942;BME280;49042;47.318;19.874;2022-07-03T15:30:01;100382.75;;;35.33;24.06
62942;BME280;49042;47.318;19.874;2022-07-03T15:33:03;100377.34;;;35.33;23.36
62942;BME280;49042;47.318;19.874;2022-07-03T15:36:05;100366.34;;;35.59;23.06
62942;BME280;49042;47.318;19.874;2022-07-03T15:39:13;100375.34;;;35.60;23.69
62942;BME280;49042;47.318;19.874;2022-07-03T15:42:35;100368.09;;;35.60;22.68
62942;BME280;49042;47.318;19.874;2022-07-03T15:49:28;100369.69;;;35.02;23.13
62942;BME280;49042;47.318;19.874;2022-07-03T15:52:32;100362.63;;;34.99;24.16
62942;BME280;49042;47.318;19.874;2022-07-03T15:55:40;100357.31;;;34.73;23.76
62942;BME280;49042;47.318;19.874;2022-07-03T15:58:49;100365.25;;;34.50;24.17
62942;BME280;49042;47.318;19.874;2022-07-03T16:01:57;100370.53;;;34.65;23.86
62942;BME280;49042;47.318;19.874;2022-07-03T16:05:28;100356.59;;;34.45;23.79
62942;BME280;49042;47.318;19.874;2022-07-03T16:08:32;100363.09;;;34.42;24.39
62942;BME280;49042;47.318;19.874;2022-07-03T16:11:36;100364.50;;;34.48;24.66
62942;BME280;49042;47.318;19.874;2022-07-03T16:14:39;100359.41;;;34.04;24.78
62942;BME280;49042;47.318;19.874;2022-07-03T16:17:43;100361.81;;;33.95;25.33
62942;BME280;49042;47.318;19.874;2022-07-03T16:20:45;100367.75;;;34.01;25.40
62942;BME280;49042;47.318;19.874;2022-07-03T16:23:49;100354.63;;;33.81;25.25
62942;BME280;49042;47.318;19.874;2022-07-03T16:26:51;100350.72;;;33.72;26.12
62942;BME280;49042;47.318;19.874;2022-07-03T16:29:54;100351.81;;;33.70;25.62
62942;BME280;49042;47.318;19.874;2022-07-03T16:32:57;100349.84;;;33.59;26.29
62942;BME280;49042;47.318;19.874;2022-07-03T16:36:02;100349.41;;;33.52;27.15
62942;BME280;49042;47.318;19.874;2022-07-03T16:39:07;100346.91;;;33.49;26.29
62942;BME280;49042;47.318;19.874;2022-07-03T16:42:14;100344.72;;;33.13;26.56
62942;BME280;49042;47.318;19.874;2022-07-03T16:45:18;100351.78;;;33.01;28.50